Flight Track Log - Related Links

Times and Time Zones

All times are in EDT time to prevent confusion due to time zone crossing. See the UAL4295 flight status page for this flight to view local times or setup timezone preferences in your user account.

Time Position Orientation Groundspeed Altitude Reporting Facility
EDT Latitude Longitude Course Direction KTS MPH feet Rate Location/Type
Thu 09:05:58 PM 40.6436 -74.1844 303° West 164 189 1,600  Level New York Center
Thu 09:06:57 PM 40.6333 -74.2439 257° West 250 288 3,100 2,213 Climbing New York Center
Thu 09:08:00 PM 40.6575 -74.3492 287° West 250 288 6,100 2,628 Climbing New York Center
Thu 09:08:58 PM 40.6678 -74.4208 281° West 262 302 8,400 2,381 Climbing New York Center
Thu 09:10:06 PM 40.7000 -74.5333 291° West 294 338 11,100 2,156 Climbing New York TRACON
Thu 09:11:00 PM 40.8556 -74.9111 303° West  Level FlightAware Approximate
Thu 09:11:06 PM 40.8000 -74.5667 346° North 334 384 13,000  Level New York TRACON
Thu 09:13:00 PM 40.9469 -74.6747 331° Northwest 371 427 14,800 1,012 Climbing New York Center
Thu 09:13:58 PM 40.9594 -74.7992 278° West 325 374 15,900 966 Climbing New York Center
Thu 09:14:58 PM 40.9472 -74.9167 262° West 346 398 16,700 645 Climbing New York Center
Thu 09:15:59 PM 40.9294 -75.0664 261° West 373 429 17,200 694 Climbing New York Center
Thu 09:16:59 PM 40.9097 -75.1997 259° West 380 437 18,100 992 Climbing New York Center
Thu 09:18:00 PM 40.8844 -75.3217 255° West 380 437 19,200 1,140 Climbing New York Center
Thu 09:19:00 PM 40.8564 -75.4514 254° West 380 437 20,400 1,160 Climbing New York Center
Thu 09:19:59 PM 40.8242 -75.5808 252° West 375 432 21,500 1,160 Climbing New York Center
Thu 09:20:59 PM 40.7936 -75.7103 253° West 375 432 22,700 1,140 Climbing New York Center
Thu 09:22:00 PM 40.7611 -75.8422 252° West 375 432 23,800 1,109 Climbing New York Center
Thu 09:22:58 PM 40.7306 -75.9689 252° West 375 432 24,900 1,109 Climbing New York Center
Thu 09:23:59 PM 40.6978 -76.0978 251° West 375 432 26,000 1,041 Climbing New York Center
Thu 09:24:59 PM 40.6686 -76.2322 254° West 375 432 27,000 992 Climbing New York Center
Thu 09:26:00 PM 40.6831 -76.3703 278° West 370 426 28,000 1,008 Climbing New York Center
Thu 09:26:58 PM 40.7058 -76.5064 282° West 375 432 29,000 966 Climbing New York Center
Thu 09:27:58 PM 40.7239 -76.6447 280° West 381 438 29,900 934 Climbing New York Center
Thu 09:29:00 PM 40.7461 -76.7836 282° West 381 438 30,900 1,000 Climbing New York Center
Thu 09:29:58 PM 40.7642 -76.9194 280° West 381 438 31,900 1,008 Climbing New York Center
Thu 09:30:59 PM 40.7861 -77.0558 282° West 381 438 32,900 942 Climbing New York Center
Thu 09:31:59 PM 40.8039 -77.1919 280° West 381 438 33,800 958 Climbing New York Center
Thu 09:32:58 PM 40.8236 -77.3281 281° West 376 433 34,800 908 Climbing New York Center
Thu 09:33:58 PM 40.8447 -77.4700 281° West 371 427 35,600 450 Climbing New York Center
Thu 09:35:38 PM 40.8725 -77.6806 280° West 370 426 36,000 150 Climbing Cleveland Center
Thu 09:36:38 PM 40.8928 -77.8225 281° West 381 438 36,000  Level Cleveland Center
Thu 09:37:38 PM 40.9108 -77.9703 279° West 392 451 36,000  Level Cleveland Center
Thu 09:38:38 PM 40.9308 -78.1178 280° West 413 475 36,000  Level Cleveland Center
Thu 09:39:38 PM 40.9550 -78.2872 281° West 421 484 36,000  Level Cleveland Center
Thu 09:40:38 PM 40.9728 -78.4436 279° West 427 491 36,000  Level Cleveland Center
Thu 09:41:38 PM 40.9903 -78.6025 278° West 432 497 36,000  Level Cleveland Center
Thu 09:42:38 PM 41.0114 -78.7558 280° West 432 497 36,000  Level Cleveland Center
Thu 09:43:38 PM 41.0283 -78.9097 278° West 432 497 36,000  Level Cleveland Center
Thu 09:44:38 PM 41.0453 -79.0606 279° West 427 491 36,000  Level Cleveland Center
Thu 09:45:38 PM 41.0617 -79.2117 278° West 422 486 36,000  Level Cleveland Center
Thu 09:46:38 PM 41.0800 -79.3572 280° West 422 486 36,000  Level Cleveland Center
Thu 09:47:38 PM 41.0961 -79.5086 278° West 417 480 36,000  Level Cleveland Center
Thu 09:48:38 PM 41.1119 -79.6406 279° West 417 480 36,000  Level Cleveland Center
Thu 09:49:38 PM 41.1297 -79.8058 278° West 412 474 36,000  Level Cleveland Center
Thu 09:50:38 PM 41.1411 -79.9381 277° West 412 474 36,000  Level Cleveland Center
Thu 09:51:38 PM 41.1583 -80.0839 279° West 407 468 36,000  Level Cleveland Center
Thu 09:52:38 PM 41.1756 -80.2328 279° West 407 468 36,000  Level Cleveland Center
Thu 09:53:38 PM 41.1886 -80.3817 277° West 407 468 36,000  Level Cleveland Center
Thu 09:54:38 PM 41.2033 -80.5253 278° West 402 463 36,000  Level Cleveland Center
Thu 09:55:38 PM 41.2178 -80.6686 278° West 402 463 36,000  Level Cleveland Center
Thu 09:56:38 PM 41.2322 -80.8261 277° West 391 450 36,000  Level Cleveland Center
Thu 09:57:38 PM 41.2464 -80.9669 278° West 391 450 36,000  Level Cleveland Center
Thu 09:58:38 PM 41.2603 -81.1133 277° West 393 452 36,000  Level Cleveland Center
Thu 09:59:38 PM 41.2742 -81.2572 277° West 393 452 36,000  Level Cleveland Center
Thu 10:00:38 PM 41.2878 -81.4011 277° West 398 458 36,000  Level Cleveland Center
Thu 10:01:38 PM 41.3036 -81.5311 279° West 398 458 36,000  Level Cleveland Center
Thu 10:02:38 PM 41.3169 -81.6750 277° West 403 464 36,000  Level Cleveland Center
Thu 10:03:38 PM 41.3281 -81.8164 276° West 397 457 36,000  Level Cleveland Center
Thu 10:04:38 PM 41.3408 -81.9550 277° West 386 444 36,000  Level Cleveland Center
Thu 10:05:38 PM 41.3539 -82.0933 277° West 386 444 36,000  Level Cleveland Center
Thu 10:06:38 PM 41.3619 -82.2514 274° West 392 451 36,000  Level Cleveland Center
Thu 10:07:38 PM 41.3706 -82.3844 275° West 376 433 36,000  Level Cleveland Center
Thu 10:08:38 PM 41.3767 -82.5203 273° West 371 427 36,000  Level Cleveland Center
Thu 10:09:38 PM 41.3867 -82.6617 275° West 371 427 36,000  Level Cleveland Center
Thu 10:10:38 PM 41.3944 -82.8003 274° West 377 434 36,000  Level Cleveland Center
Thu 10:11:38 PM 41.4019 -82.9417 274° West 382 440 36,000  Level Cleveland Center
Thu 10:12:38 PM 41.4075 -83.0775 273° West 382 440 36,000 300 Level Cleveland Center
Thu 10:13:38 PM 41.4128 -83.2108 273° West 376 433 36,600 500 Climbing Cleveland Center
Thu 10:14:38 PM 41.4033 -83.3433 265° West 363 418 37,000 200 Climbing Cleveland Center
Thu 10:15:38 PM 41.3917 -83.4756 263° West 363 418 37,000  Level Cleveland Center
Thu 10:16:38 PM 41.3781 -83.6050 262° West 363 418 37,000  Level Cleveland Center
Thu 10:17:38 PM 41.3639 -83.7372 262° West 363 418 37,000  Level Cleveland Center
Thu 10:18:38 PM 41.3519 -83.8667 263° West 363 418 37,000  Level Cleveland Center
Thu 10:20:19 PM 41.3333 -84.0708 263° West 361 415 37,000  Level Chicago Center
Thu 10:21:20 PM 41.3203 -84.2047 263° West 363 418 37,000  Level Chicago Center
Thu 10:22:22 PM 41.3056 -84.3381 262° West 365 420 37,000  Level Chicago Center
Thu 10:23:24 PM 41.2917 -84.4706 262° West 363 418 37,000  Level Chicago Center
Thu 10:24:25 PM 41.2753 -84.6306 262° West 363 418 37,000  Level Chicago Center
Thu 10:25:26 PM 41.2606 -84.7628 262° West 362 417 37,000  Level Chicago Center
Thu 10:26:28 PM 41.2467 -84.8939 262° West 359 413 37,000  Level Chicago Center
Thu 10:27:29 PM 41.2325 -85.0231 262° West 354 407 37,000  Level Chicago Center
Thu 10:28:31 PM 41.2183 -85.1519 262° West 352 405 37,000  Level Chicago Center
Thu 10:29:32 PM 41.2022 -85.2786 260° West 347 399 37,000  Level Chicago Center
Thu 10:30:34 PM 41.1883 -85.4058 262° West 347 399 37,000  Level Chicago Center
Thu 10:31:35 PM 41.1733 -85.5331 261° West 347 399 37,000  Level Chicago Center
Thu 10:32:37 PM 41.1589 -85.6606 261° West 348 400 37,000  Level Chicago Center
Thu 10:33:38 PM 41.1444 -85.7897 262° West 352 405 37,000  Level Chicago Center
Thu 10:34:40 PM 41.1261 -85.9442 261° West 354 407 37,000  Level Chicago Center
Thu 10:35:41 PM 41.1111 -86.0739 261° West 354 407 37,000  Level Chicago Center
Thu 10:36:42 PM 41.0956 -86.2011 261° West 350 403 37,000  Level Chicago Center
Thu 10:37:44 PM 41.0803 -86.3281 261° West 350 403 37,000  Level Chicago Center
Thu 10:38:45 PM 41.0647 -86.4553 261° West 351 404 37,000  Level Chicago Center
Thu 10:39:47 PM 41.0483 -86.5844 260° West 354 407 37,000  Level Chicago Center
Thu 10:40:48 PM 41.0322 -86.7111 260° West 350 403 37,000  Level Chicago Center
Thu 10:41:49 PM 41.0153 -86.8506 261° West 358 412 37,000  Level Chicago Center
Thu 10:42:51 PM 40.9989 -86.9806 261° West 359 413 37,000  Level Chicago Center
Thu 10:43:52 PM 40.9817 -87.1119 260° West 363 418 37,000  Level Chicago Center
Thu 10:44:54 PM 40.9642 -87.2422 260° West 362 417 37,000  Level Chicago Center
Thu 10:45:55 PM 40.9436 -87.3975 260° West 359 413 37,000  Level Chicago Center
Thu 10:46:57 PM 40.9281 -87.5217 261° West 346 398 37,000  Level Chicago Center
Thu 10:47:58 PM 40.9117 -87.6431 260° West 337 388 37,000  Level Chicago Center
Thu 10:48:59 PM 40.8953 -87.7642 260° West 337 388 37,000  Level Chicago Center
Thu 10:50:01 PM 40.8794 -87.8878 260° West 341 392 37,000  Level Chicago Center
Thu 10:51:02 PM 40.8617 -88.0122 259° West 344 396 37,000  Level Chicago Center
Thu 10:52:04 PM 40.8450 -88.1378 260° West 347 399 37,000  Level Chicago Center
Thu 10:53:05 PM 40.8275 -88.2622 260° West 346 398 37,000  Level Chicago Center
Thu 10:54:07 PM 40.8106 -88.3894 260° West 351 404 37,000  Level Chicago Center
Thu 10:55:08 PM 40.7889 -88.5394 259° West 348 400 37,000  Level Chicago Center
Thu 10:56:09 PM 40.7719 -88.6658 260° West 349 402 37,000  Level Chicago Center
Thu 10:57:11 PM 40.7525 -88.7914 258° West 351 404 37,000  Level Chicago Center
Thu 10:58:12 PM 40.7350 -88.9217 260° West 351 404 37,000  Level Chicago Center
Thu 10:59:14 PM 40.7153 -89.0458 258° West 345 397 37,000  Level Chicago Center
Thu 11:00:15 PM 40.6967 -89.1725 259° West 350 403 37,000  Level Chicago Center
Thu 11:01:16 PM 40.6781 -89.3003 259° West 355 409 37,000  Level Chicago Center
Thu 11:02:18 PM 40.6581 -89.4264 258° West 354 407 37,000  Level Chicago Center
Thu 11:03:19 PM 40.6367 -89.5739 259° West 362 417 37,000  Level Chicago Center
Thu 11:04:21 PM 40.6158 -89.7028 258° West 363 418 37,000  Level Chicago Center
Thu 11:05:22 PM 40.5969 -89.8364 259° West 369 425 37,000  Level Chicago Center
Thu 11:06:23 PM 40.5761 -89.9692 258° West 371 427 37,000  Level Chicago Center
Thu 11:07:25 PM 40.5553 -90.1017 258° West 372 428 37,000  Level Chicago Center
Thu 11:08:26 PM 40.5350 -90.2356 259° West 379 436 37,000  Level Chicago Center
Thu 11:09:28 PM 40.5142 -90.3656 258° West 377 434 37,000  Level Chicago Center
Thu 11:10:29 PM 40.4928 -90.4981 258° West 374 430 37,000  Level Chicago Center
Thu 11:11:30 PM 40.4661 -90.6578 258° West 378 435 37,000  Level Chicago Center
Thu 11:12:32 PM 40.4447 -90.7911 258° West 373 429 37,000  Level Chicago Center
Thu 11:13:33 PM 40.4172 -90.9192 254° West 365 420 37,000  Level Chicago Center
Thu 11:14:34 PM 40.3853 -91.0417 251° West 355 409 37,000  Level Chicago Center
Thu 11:15:36 PM 40.3544 -91.1622 251° West 351 404 37,000  Level Chicago Center
Thu 11:16:37 PM 40.3236 -91.2844 252° West 353 406 37,000  Level Chicago Center
Thu 11:17:39 PM 40.2875 -91.4239 251° West 357 411 37,000  Level Chicago Center
Thu 11:18:40 PM 40.2553 -91.5489 251° West 362 417 37,000 -443 Level Chicago Center
Thu 11:19:41 PM 40.2244 -91.6753 252° West 365 420 36,100 -927 Descending Chicago Center
Thu 11:20:43 PM 40.1906 -91.8019 251° West 370 426 35,100 -976 Descending Chicago Center
Thu 11:21:44 PM 40.1575 -91.9275 251° West 369 425 34,100 -984 Descending Chicago Center
Thu 11:22:45 PM 40.1269 -92.0519 252° West 363 418 33,100 -984 Descending Chicago Center
Thu 11:23:46 PM 40.0961 -92.1675 251° West 346 398 32,100 -1,024 Descending Chicago Center
Thu 11:24:48 PM 40.0658 -92.2828 251° West 337 388 31,000 -1,268 Descending Chicago Center
Thu 11:25:49 PM 40.0342 -92.4011 251° West 343 395 29,500 -1,547 Descending Chicago Center
Thu 11:26:56 PM 39.9950 -92.5453 251° West 348 400 27,700 -1,500 Descending Kansas City Center
Thu 11:27:57 PM 39.9633 -92.6683 251° West 354 407 26,300 -1,210 Descending Kansas City Center
Thu 11:29:00 PM 39.9306 -92.7878 250° West 352 405 25,200 -1,033 Descending Kansas City Center
Thu 11:29:59 PM 39.8981 -92.9072 251° West 351 404 24,200 -992 Descending Kansas City Center
Thu 11:31:01 PM 39.8647 -93.0244 250° West 348 400 23,200 -1,171 Descending Kansas City Center
Thu 11:32:02 PM 39.8333 -93.1433 251° West 348 400 21,800 -1,366 Descending Kansas City Center
Thu 11:33:04 PM 39.8011 -93.2611 250° West 348 400 20,400 -1,536 Descending Kansas City Center
Thu 11:34:07 PM 39.7664 -93.3900 251° West 316 364 18,600 -1,790 Descending Kansas City Center
Thu 11:35:08 PM 39.7397 -93.4847 250° West 296 341 16,700 -1,525 Descending Kansas City Center
Thu 11:36:09 PM 39.7122 -93.5822 250° West 290 334 15,500 -1,300 Descending Kansas City Center
Thu 11:37:08 PM 39.6814 -93.6947 250° West 330 380 14,100 -1,500 Descending Kansas City Center
Thu 11:38:09 PM 39.6453 -93.8233 250° West 340 391 12,500 -1,180 Descending Kansas City Center
Thu 11:39:10 PM 39.6081 -93.9244 244° Southwest 327 376 11,700 -912 Descending Kansas City Center
Thu 11:40:14 PM 39.5622 -94.0028 233° Southwest 284 327 10,600 -1,065 Descending Kansas City Center
Thu 11:41:14 PM 39.5133 -94.0850 232° Southwest 259 298 9,500 -1,091 Descending Kansas City Center
Thu 11:42:15 PM 39.4711 -94.1556 232° Southwest 260 299 8,400 -1,150 Descending Kansas City Center
Thu 11:43:14 PM 39.4286 -94.2244 231° Southwest 257 296 7,200 -1,350 Descending Kansas City Center
Thu 11:44:15 PM 39.3786 -94.3050 231° Southwest 257 296 5,700 -1,306 Descending Kansas City Center
Thu 11:45:18 PM 39.3383 -94.3731 233° Southwest 250 288 4,500 -1,056 Descending Kansas City Center
Thu 11:46:20 PM 39.3019 -94.4392 235° Southwest 239 275 3,500 -968 Descending Kansas City Center

Login

Don't have an account? Register now (free) for customized features, flight alerts, and more!